createdAt,value
2023-03-18T00:02:09.893Z,2.73
2023-03-18T00:04:37.533Z,2.73
2023-03-18T00:07:04.106Z,2.50
2023-03-18T00:09:31.275Z,2.77
2023-03-18T00:11:58.048Z,2.27
2023-03-18T00:14:24.687Z,2.93
2023-03-18T00:16:51.309Z,2.80
2023-03-18T00:19:18.699Z,2.70
2023-03-18T00:21:45.356Z,2.60
2023-03-18T00:24:12.441Z,3.07
2023-03-18T00:26:39.440Z,2.87
2023-03-18T00:29:05.987Z,2.73
2023-03-18T00:31:32.730Z,3.40
2023-03-18T00:33:59.349Z,3.20
2023-03-18T00:36:26.433Z,3.03
2023-03-18T00:38:57.446Z,3.40
2023-03-18T00:41:28.184Z,3.30
2023-03-18T00:43:55.292Z,3.93
2023-03-18T00:46:24.553Z,3.33
2023-03-18T00:48:52.014Z,3.87
2023-03-18T00:51:19.206Z,3.90
2023-03-18T00:53:50.626Z,4.10
2023-03-18T00:56:18.268Z,3.43
2023-03-18T00:58:45.344Z,3.97
2023-03-18T01:01:13.768Z,4.10
2023-03-18T01:03:42.447Z,3.90
2023-03-18T01:06:11.452Z,4.37
2023-03-18T01:08:38.671Z,4.10
2023-03-18T01:11:05.492Z,4.13
2023-03-18T01:13:33.070Z,4.70
2023-03-18T01:15:59.654Z,4.40
2023-03-18T01:18:26.281Z,4.80
2023-03-18T01:20:53.136Z,4.70
2023-03-18T01:23:19.985Z,5.30
2023-03-18T01:25:46.579Z,4.80
2023-03-18T01:28:13.724Z,5.67
2023-03-18T01:30:41.037Z,5.57
2023-03-18T01:33:07.900Z,5.83
2023-03-18T01:35:35.841Z,5.53
2023-03-18T01:38:04.692Z,5.30
2023-03-18T01:40:37.317Z,5.67
2023-03-18T01:43:15.152Z,5.30
2023-03-18T01:45:43.327Z,6.13
2023-03-18T01:48:15.081Z,5.00
2023-03-18T01:50:43.431Z,5.17
2023-03-18T01:53:11.960Z,5.30
2023-03-18T01:55:40.008Z,5.90
2023-03-18T01:58:10.175Z,6.23
2023-03-18T02:00:39.898Z,6.40
2023-03-18T02:03:06.568Z,6.27
2023-03-18T02:05:33.225Z,6.37
2023-03-18T02:07:59.731Z,6.00
2023-03-18T02:10:28.563Z,5.77
2023-03-18T02:13:00.650Z,5.97
2023-03-18T02:15:28.144Z,6.30
2023-03-18T02:17:59.850Z,6.43
2023-03-18T02:20:29.564Z,7.20
2023-03-18T02:22:59.080Z,6.40
2023-03-18T02:25:31.922Z,6.80
2023-03-18T02:28:00.978Z,6.63
2023-03-18T02:30:32.179Z,7.67
2023-03-18T02:32:59.563Z,7.07
2023-03-18T02:35:27.724Z,6.80
2023-03-18T02:37:54.406Z,6.73
2023-03-18T02:40:24.544Z,6.77
2023-03-18T02:42:51.731Z,6.93
2023-03-18T02:45:37.190Z,7.00
2023-03-18T02:48:04.910Z,7.27
2023-03-18T02:50:31.606Z,7.43
2023-03-18T02:52:59.442Z,6.97
2023-03-18T02:55:25.949Z,7.77
2023-03-18T02:57:52.477Z,7.13
2023-03-18T03:00:19.117Z,7.07
2023-03-18T03:02:46.050Z,7.20
2023-03-18T03:05:12.738Z,7.67
2023-03-18T03:07:39.325Z,8.27
2023-03-18T03:10:06.890Z,7.37
2023-03-18T03:12:33.798Z,8.37
2023-03-18T03:15:01.038Z,7.87
2023-03-18T03:17:28.029Z,7.70
2023-03-18T03:19:54.800Z,7.57
2023-03-18T03:22:21.324Z,7.43
2023-03-18T03:24:48.863Z,7.07
2023-03-18T03:27:15.444Z,7.23
2023-03-18T03:29:42.103Z,7.53
2023-03-18T03:32:08.847Z,7.63
2023-03-18T03:34:35.574Z,7.80
2023-03-18T03:37:02.105Z,7.53
2023-03-18T03:39:28.709Z,7.23
2023-03-18T03:41:55.486Z,6.83
2023-03-18T03:44:22.095Z,7.13
2023-03-18T03:46:48.882Z,7.63
2023-03-18T03:49:15.496Z,7.10
2023-03-18T03:51:43.149Z,7.00
2023-03-18T03:54:13.386Z,6.93
2023-03-18T03:56:40.024Z,7.37
2023-03-18T03:59:06.621Z,6.60
2023-03-18T04:01:34.694Z,7.00
2023-03-18T04:04:03.107Z,7.10
2023-03-18T04:06:29.894Z,6.63
2023-03-18T04:08:56.604Z,6.70
2023-03-18T04:11:23.286Z,6.63
2023-03-18T04:13:49.989Z,7.50
2023-03-18T04:16:36.559Z,6.37
2023-03-18T04:19:23.038Z,6.83
2023-03-18T04:21:51.509Z,7.07
2023-03-18T04:24:19.143Z,6.63
2023-03-18T04:26:45.990Z,6.53
2023-03-18T04:29:12.737Z,6.73
2023-03-18T04:31:39.277Z,6.63
2023-03-18T04:34:06.267Z,6.40
2023-03-18T04:36:34.062Z,6.77
2023-03-18T04:39:00.758Z,6.47
2023-03-18T04:41:27.397Z,6.87
2023-03-18T04:43:53.990Z,6.67
2023-03-18T04:46:21.092Z,6.43
2023-03-18T04:48:47.633Z,6.47
2023-03-18T04:51:15.505Z,6.53
2023-03-18T04:53:42.245Z,6.57
2023-03-18T04:56:09.039Z,6.30
2023-03-18T04:58:35.693Z,6.63
2023-03-18T05:01:02.318Z,6.37
2023-03-18T05:03:29.010Z,6.83
2023-03-18T05:05:55.728Z,6.77
2023-03-18T05:08:22.359Z,6.53
2023-03-18T05:10:52.194Z,6.00
2023-03-18T05:13:18.725Z,6.37
2023-03-18T05:15:45.338Z,6.00
2023-03-18T05:18:12.759Z,5.93
2023-03-18T05:20:39.816Z,5.87
2023-03-18T05:23:06.475Z,5.83
2023-03-18T05:25:33.590Z,5.87
2023-03-18T05:28:00.724Z,5.73
2023-03-18T05:30:27.442Z,5.53
2023-03-18T05:32:54.096Z,5.90
2023-03-18T05:35:20.686Z,5.63
2023-03-18T05:37:47.232Z,5.13
2023-03-18T05:40:14.780Z,5.57
2023-03-18T05:42:54.983Z,5.73
2023-03-18T05:45:22.709Z,5.67
2023-03-18T05:47:49.353Z,5.47
2023-03-18T05:50:19.212Z,6.77
2023-03-18T05:52:45.783Z,5.90
2023-03-18T05:55:13.447Z,5.63
2023-03-18T05:57:40.467Z,5.13
2023-03-18T06:00:07.475Z,6.30
2023-03-18T06:02:34.094Z,5.90
2023-03-18T06:05:01.573Z,6.03
2023-03-18T06:07:28.995Z,5.30
2023-03-18T06:09:55.506Z,5.50
2023-03-18T06:12:24.129Z,5.87
2023-03-18T06:14:50.714Z,5.43
2023-03-18T06:17:17.495Z,5.53
2023-03-18T06:19:45.003Z,6.00
2023-03-18T06:22:12.256Z,5.30
2023-03-18T06:24:38.844Z,5.67
2023-03-18T06:27:05.443Z,5.13
2023-03-18T06:29:32.017Z,5.23
2023-03-18T06:31:58.683Z,6.20
2023-03-18T06:34:25.433Z,5.70
2023-03-18T06:36:52.430Z,5.40
2023-03-18T06:39:19.938Z,5.60
2023-03-18T06:41:46.734Z,5.60
2023-03-18T06:44:13.343Z,5.47
2023-03-18T06:46:42.662Z,5.53
2023-03-18T06:49:11.336Z,5.17
2023-03-18T06:51:38.561Z,5.57
2023-03-18T06:54:05.873Z,5.30
2023-03-18T06:56:34.414Z,5.80
2023-03-18T06:59:01.090Z,4.90
2023-03-18T07:01:30.149Z,4.90
2023-03-18T07:03:59.058Z,5.90
2023-03-18T07:06:25.624Z,5.23
2023-03-18T07:08:53.001Z,5.17
2023-03-18T07:11:19.559Z,5.50
2023-03-18T07:13:46.299Z,5.10
2023-03-18T07:16:12.885Z,5.23
2023-03-18T07:18:40.653Z,4.97
2023-03-18T07:21:07.241Z,5.80
2023-03-18T07:23:34.449Z,5.23
2023-03-18T07:26:01.171Z,5.67
2023-03-18T07:28:27.965Z,5.83
2023-03-18T07:30:54.809Z,6.23
2023-03-18T07:33:21.367Z,5.53
2023-03-18T07:35:48.472Z,5.50
2023-03-18T07:38:14.982Z,5.33
2023-03-18T07:40:41.937Z,5.77
2023-03-18T07:43:09.262Z,5.40
2023-03-18T07:45:35.771Z,5.97
2023-03-18T07:48:02.338Z,6.10
2023-03-18T07:50:29.017Z,6.13
2023-03-18T07:52:55.617Z,6.50
2023-03-18T07:55:22.188Z,6.07
2023-03-18T07:57:49.214Z,6.33
2023-03-18T08:00:16.015Z,5.90
2023-03-18T08:02:43.122Z,6.17
2023-03-18T08:05:10.571Z,6.23
2023-03-18T08:07:37.989Z,5.97
2023-03-18T08:10:05.001Z,6.30
2023-03-18T08:12:45.357Z,5.93
2023-03-18T08:15:18.547Z,5.83
2023-03-18T08:17:45.085Z,6.03
2023-03-18T08:20:12.433Z,6.07
2023-03-18T08:22:39.146Z,5.77
2023-03-18T08:25:06.458Z,6.57
2023-03-18T08:27:33.261Z,6.47
2023-03-18T08:30:03.374Z,5.97
2023-03-18T08:32:30.878Z,5.60
2023-03-18T08:34:57.993Z,6.53
2023-03-18T08:37:24.819Z,6.47
2023-03-18T08:39:51.644Z,5.80
2023-03-18T08:42:19.142Z,6.57
2023-03-18T08:44:45.781Z,6.50
2023-03-18T08:47:12.324Z,6.10
2023-03-18T08:49:39.837Z,6.00
2023-03-18T08:52:07.447Z,6.57
2023-03-18T08:54:34.164Z,6.10
2023-03-18T08:57:00.850Z,5.73
2023-03-18T08:59:27.528Z,5.70
2023-03-18T09:01:54.124Z,6.17
2023-03-18T09:04:20.689Z,6.13
2023-03-18T09:06:48.815Z,6.17
2023-03-18T09:09:15.598Z,5.77
2023-03-18T09:11:42.486Z,6.47
2023-03-18T09:14:09.221Z,6.10
2023-03-18T09:16:36.405Z,6.30
2023-03-18T09:19:03.545Z,6.57
2023-03-18T09:21:30.151Z,6.77
2023-03-18T09:23:56.688Z,6.20
2023-03-18T09:26:23.830Z,7.00
2023-03-18T09:28:50.573Z,6.80
2023-03-18T09:31:17.374Z,7.73
2023-03-18T09:33:43.983Z,8.07
2023-03-18T09:36:10.744Z,7.33
2023-03-18T09:38:37.464Z,7.30
2023-03-18T09:41:13.057Z,8.20
2023-03-18T09:43:44.866Z,7.63
2023-03-18T09:46:40.963Z,7.33
2023-03-18T09:49:46.324Z,8.17
2023-03-18T09:52:21.631Z,8.00
2023-03-18T09:55:02.909Z,8.03
2023-03-18T09:57:34.243Z,8.50
2023-03-18T10:00:05.486Z,8.60
2023-03-18T10:02:35.056Z,10.13
2023-03-18T10:05:10.765Z,10.50
2023-03-18T10:07:39.920Z,12.03
2023-03-18T10:10:09.634Z,11.87
2023-03-18T10:12:42.332Z,9.53
2023-03-18T10:15:21.543Z,10.23
2023-03-18T10:17:54.230Z,11.13
2023-03-18T10:20:21.096Z,12.10
2023-03-18T10:22:57.696Z,12.00
2023-03-18T10:25:24.312Z,11.37
2023-03-18T10:27:53.853Z,13.10
2023-03-18T10:30:35.798Z,13.90
2023-03-18T10:33:14.770Z,15.03
2023-03-18T10:35:50.438Z,14.73
2023-03-18T10:38:29.572Z,15.57
2023-03-18T10:40:58.074Z,14.77
2023-03-18T10:43:26.192Z,14.17
2023-03-18T10:45:59.561Z,13.80
2023-03-18T10:48:26.410Z,14.87
2023-03-18T10:50:53.018Z,13.40
2023-03-18T10:53:28.649Z,12.80
2023-03-18T10:55:59.040Z,13.43
2023-03-18T10:58:29.007Z,12.73
2023-03-18T11:00:55.855Z,12.43
2023-03-18T11:03:27.986Z,12.00
2023-03-18T11:05:56.038Z,11.73
2023-03-18T11:08:34.809Z,11.73
2023-03-18T11:11:21.164Z,11.43
2023-03-18T11:13:49.372Z,10.53
2023-03-18T11:16:21.640Z,11.57
2023-03-18T11:18:49.410Z,11.57
2023-03-18T11:21:16.445Z,11.40
2023-03-18T11:23:56.300Z,12.27
2023-03-18T11:26:22.874Z,11.40
2023-03-18T11:28:49.496Z,12.13
2023-03-18T11:31:17.964Z,11.37
2023-03-18T11:33:44.927Z,10.00
2023-03-18T11:36:18.520Z,9.90
2023-03-18T11:38:55.739Z,10.67
2023-03-18T11:41:27.753Z,10.67
2023-03-18T11:44:01.827Z,11.57
2023-03-18T11:46:40.736Z,11.47
2023-03-18T11:49:12.023Z,11.07
2023-03-18T11:51:40.930Z,11.37
2023-03-18T11:54:07.866Z,11.63
2023-03-18T11:56:53.259Z,11.27
2023-03-18T11:59:19.820Z,11.43
2023-03-18T12:01:57.943Z,11.47
2023-03-18T12:04:30.885Z,10.83
2023-03-18T12:07:16.526Z,10.50
2023-03-18T12:09:47.426Z,11.07
2023-03-18T12:12:44.207Z,11.43
2023-03-18T12:15:24.479Z,11.40
2023-03-18T12:18:13.117Z,10.80
2023-03-18T12:20:40.661Z,10.70
2023-03-18T12:23:13.814Z,9.87
2023-03-18T12:25:46.147Z,9.17
2023-03-18T12:28:29.037Z,10.07
2023-03-18T12:31:02.588Z,10.63
2023-03-18T12:33:32.633Z,9.87
2023-03-18T12:36:20.814Z,10.60
2023-03-18T12:39:10.963Z,9.93
2023-03-18T12:41:49.788Z,10.27
2023-03-18T12:44:37.271Z,10.10
2023-03-18T12:47:09.478Z,9.87
2023-03-18T12:49:41.439Z,10.77
2023-03-18T12:52:27.493Z,10.53
2023-03-18T12:55:11.915Z,10.63
2023-03-18T12:57:42.105Z,11.50
2023-03-18T13:00:15.038Z,9.77
2023-03-18T13:02:45.790Z,10.77
2023-03-18T13:05:34.819Z,9.60
2023-03-18T13:08:25.089Z,10.17
2023-03-18T13:11:08.647Z,9.70
2023-03-18T13:13:38.458Z,8.50
2023-03-18T13:16:05.955Z,10.10
2023-03-18T13:18:39.740Z,9.80
2023-03-18T13:21:07.769Z,8.40
2023-03-18T13:23:34.357Z,9.03
2023-03-18T13:26:19.816Z,8.03
2023-03-18T13:29:00.765Z,6.40
2023-03-18T13:31:41.927Z,6.50
2023-03-18T13:34:27.473Z,6.43
2023-03-18T13:37:07.453Z,5.90
2023-03-18T13:39:37.773Z,5.67
2023-03-18T13:42:13.256Z,5.30
2023-03-18T13:44:44.014Z,6.13
2023-03-18T13:47:16.649Z,6.50
2023-03-18T13:49:44.720Z,6.13
2023-03-18T13:52:26.714Z,5.80
2023-03-18T13:54:53.444Z,5.80
2023-03-18T13:57:29.435Z,6.30
2023-03-18T14:00:19.320Z,6.10
2023-03-18T14:02:46.220Z,6.70
2023-03-18T14:05:32.009Z,5.40
2023-03-18T14:07:59.447Z,5.00
2023-03-18T14:10:26.523Z,5.33
2023-03-18T14:12:53.839Z,5.50
2023-03-18T14:15:41.607Z,4.80
2023-03-18T14:18:28.328Z,4.20
2023-03-18T14:20:58.761Z,5.13
2023-03-18T14:23:28.751Z,5.10
2023-03-18T14:26:02.367Z,5.20
2023-03-18T14:28:30.174Z,5.20
2023-03-18T14:30:58.855Z,5.50
2023-03-18T14:33:25.805Z,5.83
2023-03-18T14:35:55.467Z,5.57
2023-03-18T14:38:28.218Z,5.17
2023-03-18T14:40:56.055Z,4.93
2023-03-18T14:43:27.289Z,5.37
2023-03-18T14:45:57.066Z,5.03
2023-03-18T14:48:25.262Z,4.53
2023-03-18T14:50:52.852Z,4.73
2023-03-18T14:53:20.937Z,4.40
2023-03-18T14:55:48.235Z,4.30
2023-03-18T14:58:19.088Z,3.90
2023-03-18T15:00:47.266Z,4.50
2023-03-18T15:03:21.928Z,4.20
2023-03-18T15:05:49.129Z,4.30
2023-03-18T15:08:19.504Z,3.93
2023-03-18T15:10:50.456Z,4.37
2023-03-18T15:13:18.384Z,3.40
2023-03-18T15:15:45.553Z,3.40
2023-03-18T15:18:27.604Z,3.20
2023-03-18T15:20:56.144Z,2.83
2023-03-18T15:23:27.218Z,3.10
2023-03-18T15:25:54.238Z,2.90
2023-03-18T15:28:23.792Z,3.10
2023-03-18T15:30:52.323Z,3.03
2023-03-18T15:33:20.909Z,2.80
2023-03-18T15:35:53.981Z,3.03
2023-03-18T15:38:25.912Z,2.90
2023-03-18T15:40:54.973Z,2.80
2023-03-18T15:43:30.357Z,3.00
2023-03-18T15:45:59.052Z,3.10
2023-03-18T15:48:38.059Z,2.70
2023-03-18T15:51:05.702Z,2.77
2023-03-18T15:53:40.817Z,2.70
2023-03-18T15:56:11.549Z,2.70
2023-03-18T15:58:38.871Z,3.00
2023-03-18T16:01:07.674Z,2.40
2023-03-18T16:03:35.182Z,3.13
2023-03-18T16:06:02.397Z,3.07
2023-03-18T16:08:29.031Z,2.90
2023-03-18T16:10:57.637Z,2.93
2023-03-18T16:13:29.558Z,2.87
2023-03-18T16:15:56.909Z,2.70
2023-03-18T16:18:23.568Z,2.60
2023-03-18T16:20:50.503Z,2.80
2023-03-18T16:23:17.664Z,2.20
2023-03-18T16:25:48.570Z,2.50
2023-03-18T16:28:20.842Z,2.63
2023-03-18T16:30:48.054Z,2.47
2023-03-18T16:33:17.022Z,2.57
2023-03-18T16:35:44.350Z,2.50
2023-03-18T16:38:12.880Z,2.97
2023-03-18T16:40:39.709Z,3.10
2023-03-18T16:43:12.756Z,2.33
2023-03-18T16:45:40.409Z,2.40
2023-03-18T16:48:07.602Z,2.47
2023-03-18T16:50:35.989Z,1.93
2023-03-18T16:53:03.645Z,1.83
2023-03-18T16:55:30.413Z,2.37
2023-03-18T16:57:58.931Z,2.07
2023-03-18T17:00:30.137Z,2.17
2023-03-18T17:02:56.703Z,2.37
2023-03-18T17:05:23.258Z,2.37
2023-03-18T17:07:50.546Z,2.40
2023-03-18T17:10:19.436Z,2.20
2023-03-18T17:12:59.652Z,2.20
2023-03-18T17:15:28.630Z,1.60
2023-03-18T17:17:58.207Z,2.63
2023-03-18T17:20:26.808Z,2.50
2023-03-18T17:22:54.249Z,3.43
2023-03-18T17:25:21.300Z,3.30
2023-03-18T17:27:53.112Z,2.77
2023-03-18T17:30:21.227Z,2.37
2023-03-18T17:32:48.631Z,2.43
2023-03-18T17:35:17.618Z,3.30
2023-03-18T17:37:45.261Z,2.80
2023-03-18T17:40:16.749Z,3.60
2023-03-18T17:42:43.650Z,3.30
2023-03-18T17:45:29.623Z,4.27
2023-03-18T17:48:12.468Z,4.10
2023-03-18T17:50:39.130Z,4.77
2023-03-18T17:53:05.767Z,4.10
2023-03-18T17:55:32.630Z,3.10
2023-03-18T17:58:00.053Z,3.40
2023-03-18T18:00:27.386Z,5.00
2023-03-18T18:03:00.403Z,6.20
2023-03-18T18:05:27.356Z,6.50
2023-03-18T18:07:54.068Z,6.07
2023-03-18T18:10:20.885Z,5.37
2023-03-18T18:12:49.778Z,5.27
2023-03-18T18:15:28.939Z,5.70
2023-03-18T18:17:56.200Z,5.70
2023-03-18T18:20:22.922Z,5.47
2023-03-18T18:22:50.476Z,5.23
2023-03-18T18:25:18.469Z,5.13
2023-03-18T18:27:46.454Z,5.10
2023-03-18T18:30:15.424Z,5.93
2023-03-18T18:32:42.011Z,5.30
2023-03-18T18:35:09.967Z,6.17
2023-03-18T18:37:36.551Z,6.83
2023-03-18T18:40:03.653Z,7.60
2023-03-18T18:42:30.772Z,9.77
2023-03-18T18:44:57.327Z,9.50
2023-03-18T18:47:24.013Z,6.37
2023-03-18T18:49:51.058Z,5.87
2023-03-18T18:52:17.821Z,6.90
2023-03-18T18:54:45.108Z,7.30
2023-03-18T18:57:28.448Z,7.87
2023-03-18T18:59:55.377Z,5.00
2023-03-18T19:02:28.278Z,4.23
2023-03-18T19:04:55.014Z,2.63
2023-03-18T19:07:23.053Z,3.20
2023-03-18T19:09:50.900Z,3.07
2023-03-18T19:12:21.707Z,3.53
2023-03-18T19:14:49.206Z,2.87
2023-03-18T19:17:18.028Z,3.83
2023-03-18T19:19:46.930Z,3.73
2023-03-18T19:22:15.320Z,3.87
2023-03-18T19:24:43.742Z,4.53
2023-03-18T19:27:15.690Z,4.53
2023-03-18T19:29:46.018Z,3.73
2023-03-18T19:32:15.586Z,3.90
2023-03-18T19:34:42.829Z,4.17
2023-03-18T19:37:14.371Z,4.17
2023-03-18T19:39:42.257Z,4.10
2023-03-18T19:42:12.472Z,3.97
2023-03-18T19:44:39.344Z,3.53
2023-03-18T19:47:06.141Z,3.30
2023-03-18T19:49:35.493Z,3.13
2023-03-18T19:52:07.012Z,3.70
2023-03-18T19:54:35.540Z,3.87
2023-03-18T19:57:03.713Z,3.23
2023-03-18T19:59:37.996Z,3.30
2023-03-18T20:02:15.419Z,3.60
2023-03-18T20:04:42.095Z,3.23
2023-03-18T20:07:08.717Z,3.23
2023-03-18T20:09:36.082Z,3.80
2023-03-18T20:12:05.912Z,4.43
2023-03-18T20:14:38.327Z,3.87
2023-03-18T20:17:23.740Z,4.20
2023-03-18T20:19:50.567Z,5.30
2023-03-18T20:22:21.501Z,4.50
2023-03-18T20:24:48.484Z,3.83
2023-03-18T20:27:16.024Z,4.43
2023-03-18T20:29:43.548Z,5.03
2023-03-18T20:32:10.141Z,6.20
2023-03-18T20:34:38.468Z,5.03
2023-03-18T20:37:06.524Z,5.57
2023-03-18T20:39:33.561Z,4.70
2023-03-18T20:42:00.787Z,4.60
2023-03-18T20:44:27.791Z,5.40
2023-03-18T20:46:54.535Z,5.67
2023-03-18T20:49:21.076Z,5.83
2023-03-18T20:51:48.174Z,5.80
2023-03-18T20:54:19.658Z,6.77
2023-03-18T20:56:47.251Z,5.17
2023-03-18T20:59:13.981Z,4.13
2023-03-18T21:01:40.691Z,5.30
2023-03-18T21:04:07.633Z,5.87
2023-03-18T21:06:34.285Z,5.57
2023-03-18T21:09:01.333Z,4.93
2023-03-18T21:11:30.048Z,4.90
2023-03-18T21:13:56.770Z,7.93
2023-03-18T21:16:23.936Z,5.77
2023-03-18T21:18:50.738Z,5.70
2023-03-18T21:21:25.345Z,4.63
2023-03-18T21:23:52.974Z,4.23
2023-03-18T21:26:19.692Z,5.23
2023-03-18T21:28:47.081Z,4.80
2023-03-18T21:31:25.118Z,6.37
2023-03-18T21:33:52.931Z,6.07
2023-03-18T21:36:20.632Z,5.43
2023-03-18T21:38:47.568Z,6.33
2023-03-18T21:41:21.826Z,5.60
2023-03-18T21:43:48.727Z,6.50
2023-03-18T21:46:19.844Z,6.70
2023-03-18T21:48:46.771Z,6.13
2023-03-18T21:51:40.309Z,7.00
2023-03-18T21:54:16.728Z,5.93
2023-03-18T21:56:43.682Z,6.37
2023-03-18T21:59:10.588Z,6.00
2023-03-18T22:01:37.296Z,8.03
2023-03-18T22:04:03.950Z,6.73
2023-03-18T22:06:30.884Z,6.97
2023-03-18T22:08:57.581Z,7.27
2023-03-18T22:11:24.286Z,6.67
2023-03-18T22:13:50.915Z,6.57
2023-03-18T22:16:18.046Z,6.47
2023-03-18T22:18:45.307Z,7.13
2023-03-18T22:21:13.957Z,6.33
2023-03-18T22:23:43.032Z,6.20
2023-03-18T22:26:14.033Z,6.50
2023-03-18T22:28:40.709Z,6.37
2023-03-18T22:31:11.510Z,7.03
2023-03-18T22:33:38.912Z,7.67
2023-03-18T22:36:06.000Z,7.73
2023-03-18T22:38:32.859Z,8.03
2023-03-18T22:40:59.944Z,9.50
2023-03-18T22:43:31.180Z,9.73
2023-03-18T22:45:58.629Z,9.43
2023-03-18T22:48:25.256Z,9.63
2023-03-18T22:50:53.764Z,9.83
2023-03-18T22:53:20.866Z,9.97
2023-03-18T22:55:48.562Z,8.90
2023-03-18T22:58:20.050Z,9.20
2023-03-18T23:00:47.087Z,9.37
2023-03-18T23:03:17.640Z,9.17
2023-03-18T23:05:45.862Z,11.27
2023-03-18T23:08:12.886Z,10.63
2023-03-18T23:10:39.756Z,10.37
2023-03-18T23:13:11.766Z,10.33
2023-03-18T23:15:38.401Z,10.00
2023-03-18T23:18:06.650Z,10.03
2023-03-18T23:20:35.227Z,9.70
2023-03-18T23:23:01.984Z,9.80
2023-03-18T23:25:28.749Z,11.10
2023-03-18T23:27:55.475Z,10.43
2023-03-18T23:30:22.028Z,11.43
2023-03-18T23:32:48.792Z,11.00
2023-03-18T23:35:15.566Z,12.40
2023-03-18T23:37:42.196Z,12.43
2023-03-18T23:40:09.947Z,12.60
2023-03-18T23:42:36.723Z,10.27
2023-03-18T23:45:04.966Z,11.13
2023-03-18T23:47:32.402Z,10.67
2023-03-18T23:49:58.962Z,10.00
2023-03-18T23:52:25.676Z,9.70
2023-03-18T23:54:52.284Z,10.63
2023-03-18T23:57:18.903Z,9.53
2023-03-18T23:59:45.503Z,9.40
